createdAt,value
2018-06-11T00:01:07.015Z,100806.02
2018-06-11T00:03:35.295Z,100805.48
2018-06-11T00:06:03.608Z,100804.45
2018-06-11T00:08:31.799Z,100809.54
2018-06-11T00:11:04.952Z,100806.39
2018-06-11T00:13:33.188Z,100817.84
2018-06-11T00:16:01.472Z,100814.52
2018-06-11T00:18:29.758Z,100819.02
2018-06-11T00:20:58.003Z,100825.05
2018-06-11T00:23:26.251Z,100829.92
2018-06-11T00:25:54.476Z,100829.84
2018-06-11T00:28:22.749Z,100821.92
2018-06-11T00:30:50.989Z,100824.00
2018-06-11T00:33:19.245Z,100821.06
2018-06-11T00:35:47.458Z,100819.19
2018-06-11T00:38:15.701Z,100825.36
2018-06-11T00:40:43.933Z,100823.58
2018-06-11T00:43:12.159Z,100821.62
2018-06-11T00:45:40.411Z,100826.36
2018-06-11T00:48:08.653Z,100821.54
2018-06-11T00:50:36.942Z,100820.50
2018-06-11T00:53:05.245Z,100821.27
2018-06-11T00:56:14.250Z,100823.84
2018-06-11T00:58:42.474Z,100821.77
2018-06-11T01:01:10.759Z,100815.92
2018-06-11T01:03:39.025Z,100822.93
2018-06-11T01:06:07.279Z,100824.94
2018-06-11T01:08:35.599Z,100825.70
2018-06-11T01:11:03.837Z,100826.98
2018-06-11T01:13:32.092Z,100824.70
2018-06-11T01:16:00.359Z,100827.81
2018-06-11T01:18:28.607Z,100822.94
2018-06-11T01:20:56.854Z,100824.63
2018-06-11T01:23:25.173Z,100824.88
2018-06-11T01:25:53.425Z,100823.66
2018-06-11T01:28:21.795Z,100830.27
2018-06-11T01:30:50.038Z,100823.13
2018-06-11T01:33:18.328Z,100821.73
2018-06-11T01:35:46.600Z,100822.52
2018-06-11T01:38:15.461Z,100814.96
2018-06-11T01:40:43.692Z,100812.77
2018-06-11T01:43:11.919Z,100818.00
2018-06-11T01:45:40.164Z,100814.38
2018-06-11T01:48:08.438Z,100812.97
2018-06-11T01:50:36.715Z,100807.98
2018-06-11T01:53:04.945Z,100802.73
2018-06-11T01:55:33.239Z,100809.27
2018-06-11T01:58:01.504Z,100811.73
2018-06-11T02:00:29.772Z,100810.80
2018-06-11T02:02:58.004Z,100818.52
2018-06-11T02:05:26.351Z,100815.16
2018-06-11T02:07:54.589Z,100824.12
2018-06-11T02:10:22.809Z,100825.84
2018-06-11T02:12:51.228Z,100827.53
2018-06-11T02:15:19.572Z,100828.38
2018-06-11T02:17:47.827Z,100834.78
2018-06-11T02:20:16.077Z,100831.72
2018-06-11T02:22:44.341Z,100833.63
2018-06-11T02:25:12.571Z,100836.23
2018-06-11T02:27:40.791Z,100836.22
2018-06-11T02:30:09.060Z,100845.12
2018-06-11T02:32:37.302Z,100854.50
2018-06-11T02:35:05.714Z,100859.67
2018-06-11T02:37:33.931Z,100857.14
2018-06-11T02:40:02.218Z,100856.73
2018-06-11T02:42:30.510Z,100858.16
2018-06-11T02:44:58.826Z,100853.77
2018-06-11T02:47:27.123Z,100851.25
2018-06-11T02:49:55.435Z,100850.84
2018-06-11T02:52:23.761Z,100851.22
2018-06-11T02:54:52.024Z,100860.56
2018-06-11T02:57:20.266Z,100854.16
2018-06-11T02:59:48.582Z,100851.90
2018-06-11T03:02:16.782Z,100855.53
2018-06-11T03:04:45.951Z,100859.21
2018-06-11T03:07:14.211Z,100855.80
2018-06-11T03:09:42.450Z,100858.92
2018-06-11T03:12:10.715Z,100853.52
2018-06-11T03:14:39.838Z,100853.42
2018-06-11T03:17:08.309Z,100846.91
2018-06-11T03:19:36.507Z,100847.71
2018-06-11T03:22:04.751Z,100842.44
2018-06-11T03:24:32.993Z,100845.73
2018-06-11T03:27:01.222Z,100839.53
2018-06-11T03:29:29.465Z,100836.33
2018-06-11T03:31:57.751Z,100847.33
2018-06-11T03:34:25.997Z,100859.87
2018-06-11T03:36:54.304Z,100853.44
2018-06-11T03:39:22.573Z,100853.28
2018-06-11T03:41:50.863Z,100854.02
2018-06-11T03:44:19.207Z,100860.87
2018-06-11T03:46:47.617Z,100868.51
2018-06-11T03:49:15.856Z,100873.59
2018-06-11T03:51:44.151Z,100873.31
2018-06-11T03:54:12.402Z,100868.65
2018-06-11T03:56:40.663Z,100865.42
2018-06-11T03:59:08.900Z,100859.08
2018-06-11T04:01:37.296Z,100862.50
2018-06-11T04:04:05.732Z,100863.72
2018-06-11T04:06:33.980Z,100854.45
2018-06-11T04:09:02.330Z,100857.31
2018-06-11T04:11:30.584Z,100856.57
2018-06-11T04:13:58.868Z,100844.46
2018-06-11T04:16:27.588Z,100845.75
2018-06-11T04:18:55.849Z,100848.03
2018-06-11T04:21:24.065Z,100839.05
2018-06-11T04:23:52.292Z,100845.31
2018-06-11T04:26:20.530Z,100846.30
2018-06-11T04:28:48.762Z,100852.79
2018-06-11T04:31:17.014Z,100859.67
2018-06-11T04:33:45.292Z,100854.80
2018-06-11T04:36:13.555Z,100844.61
2018-06-11T04:38:41.762Z,100841.95
2018-06-11T04:41:10.000Z,100839.47
2018-06-11T04:43:38.247Z,100837.27
2018-06-11T04:46:06.521Z,100841.38
2018-06-11T04:48:34.713Z,100843.61
2018-06-11T04:51:02.966Z,100841.08
2018-06-11T04:53:31.190Z,100840.83
2018-06-11T04:55:59.432Z,100843.47
2018-06-11T04:58:27.751Z,100848.06
2018-06-11T05:00:56.056Z,100849.77
2018-06-11T05:03:24.313Z,100853.78
2018-06-11T05:05:52.524Z,100859.43
2018-06-11T05:08:20.766Z,100862.97
2018-06-11T05:13:16.504Z,100849.07
2018-06-11T05:15:44.812Z,100848.78
2018-06-11T05:18:13.058Z,100854.61
2018-06-11T05:20:41.470Z,100856.89
2018-06-11T05:23:09.712Z,100852.06
2018-06-11T05:25:38.889Z,100861.09
2018-06-11T05:28:07.144Z,100859.86
2018-06-11T05:30:35.417Z,100868.70
2018-06-11T05:33:03.789Z,100877.02
2018-06-11T05:35:32.111Z,100878.64
2018-06-11T05:38:00.356Z,100878.77
2018-06-11T05:40:28.595Z,100883.28
2018-06-11T05:42:56.835Z,100880.77
2018-06-11T05:45:25.089Z,100877.55
2018-06-11T05:47:53.320Z,100886.48
2018-06-11T05:50:21.594Z,100884.97
2018-06-11T05:52:49.840Z,100893.30
2018-06-11T05:55:18.140Z,100886.64
2018-06-11T05:57:46.360Z,100897.87
2018-06-11T06:00:14.641Z,100897.24
2018-06-11T06:02:42.860Z,100898.77
2018-06-11T06:05:11.143Z,100900.20
2018-06-11T06:07:39.359Z,100898.00
2018-06-11T06:10:07.590Z,100901.86
2018-06-11T06:12:35.796Z,100906.25
2018-06-11T06:15:04.125Z,100903.66
2018-06-11T06:17:32.305Z,100902.02
2018-06-11T06:20:00.520Z,100909.69
2018-06-11T06:22:28.763Z,100899.28
2018-06-11T06:24:56.963Z,100896.98
2018-06-11T06:27:25.196Z,100899.14
2018-06-11T06:29:53.425Z,100900.46
2018-06-11T06:32:21.969Z,100901.91
2018-06-11T06:34:50.255Z,100903.38
2018-06-11T06:37:18.458Z,100897.88
2018-06-11T06:39:46.654Z,100895.14
2018-06-11T06:42:14.916Z,100896.19
2018-06-11T06:44:43.306Z,100896.81
2018-06-11T06:47:11.574Z,100902.04
2018-06-11T06:49:39.804Z,100904.75
2018-06-11T06:52:08.029Z,100898.05
2018-06-11T06:54:36.254Z,100900.73
2018-06-11T06:57:04.528Z,100906.07
2018-06-11T06:59:32.747Z,100909.08
2018-06-11T07:02:01.013Z,100898.62
2018-06-11T07:04:29.345Z,100901.73
2018-06-11T07:06:57.604Z,100909.16
2018-06-11T07:09:25.853Z,100903.94
2018-06-11T07:11:54.096Z,100898.50
2018-06-11T07:14:22.329Z,100900.00
2018-06-11T07:16:50.532Z,100908.90
2018-06-11T07:19:18.746Z,100907.84
2018-06-11T07:21:46.966Z,100907.93
2018-06-11T07:24:15.664Z,100906.91
2018-06-11T07:26:43.977Z,100907.95
2018-06-11T07:29:12.226Z,100908.00
2018-06-11T07:31:40.493Z,100916.74
2018-06-11T07:34:08.687Z,100911.40
2018-06-11T07:36:36.902Z,100908.48
2018-06-11T07:39:07.148Z,100904.38
2018-06-11T07:41:35.992Z,100912.95
2018-06-11T07:44:04.220Z,100908.30
2018-06-11T07:46:32.506Z,100906.45
2018-06-11T07:49:00.842Z,100898.09
2018-06-11T07:51:29.196Z,100908.02
2018-06-11T07:53:57.586Z,100909.69
2018-06-11T07:56:26.004Z,100908.61
2018-06-11T07:58:54.303Z,100920.58
2018-06-11T08:01:22.531Z,100920.04
2018-06-11T08:03:50.751Z,100919.11
2018-06-11T08:06:18.971Z,100916.22
2018-06-11T08:08:47.215Z,100906.29
2018-06-11T08:11:15.407Z,100919.05
2018-06-11T08:13:43.747Z,100911.42
2018-06-11T08:16:11.876Z,100911.96
2018-06-11T08:18:40.199Z,100904.75
2018-06-11T08:21:08.436Z,100904.91
2018-06-11T08:23:36.685Z,100913.21
2018-06-11T08:26:04.936Z,100916.22
2018-06-11T08:28:33.214Z,100911.95
2018-06-11T08:31:01.476Z,100918.72
2018-06-11T08:33:29.740Z,100909.33
2018-06-11T08:35:58.487Z,100919.36
2018-06-11T08:38:26.963Z,100910.91
2018-06-11T08:40:55.288Z,100910.98
2018-06-11T08:43:23.528Z,100907.66
2018-06-11T08:45:51.891Z,100910.23
2018-06-11T08:48:20.129Z,100906.50
2018-06-11T08:50:48.375Z,100910.07
2018-06-11T08:53:17.004Z,100899.60
2018-06-11T08:55:45.227Z,100894.94
2018-06-11T08:58:13.558Z,100898.85
2018-06-11T09:00:41.821Z,100902.40
2018-06-11T09:03:10.070Z,100894.55
2018-06-11T09:05:38.266Z,100897.64
2018-06-11T09:08:06.514Z,100893.88
2018-06-11T09:10:34.739Z,100900.50
2018-06-11T09:13:03.031Z,100903.17
2018-06-11T09:15:31.321Z,100905.36
2018-06-11T09:17:59.598Z,100917.00
2018-06-11T09:20:27.828Z,100908.30
2018-06-11T09:22:56.067Z,100903.15
2018-06-11T09:25:24.310Z,100915.86
2018-06-11T09:27:52.562Z,100904.46
2018-06-11T09:30:20.778Z,100917.73
2018-06-11T09:32:49.015Z,100909.76
2018-06-11T09:35:42.632Z,100914.00
2018-06-11T09:38:10.941Z,100917.02
2018-06-11T09:40:39.112Z,100913.06
2018-06-11T09:43:07.402Z,100912.69
2018-06-11T09:45:35.596Z,100908.20
2018-06-11T09:48:03.859Z,100906.31
2018-06-11T09:50:32.076Z,100901.48
2018-06-11T09:53:00.355Z,100898.13
2018-06-11T09:55:28.603Z,100896.50
2018-06-11T09:57:57.158Z,100885.37
2018-06-11T10:00:30.828Z,100892.18
2018-06-11T10:02:59.127Z,100890.19
2018-06-11T10:05:27.358Z,100892.90
2018-06-11T10:07:55.651Z,100900.16
2018-06-11T10:10:23.896Z,100897.78
2018-06-11T10:12:52.128Z,100892.94
2018-06-11T10:15:20.398Z,100891.25
2018-06-11T10:17:48.628Z,100881.84
2018-06-11T10:20:16.864Z,100886.02
2018-06-11T10:22:45.056Z,100889.66
2018-06-11T10:25:13.393Z,100887.11
2018-06-11T10:27:41.644Z,100895.53
2018-06-11T10:30:09.862Z,100901.48
2018-06-11T10:32:38.076Z,100897.63
2018-06-11T10:35:06.295Z,100898.66
2018-06-11T10:37:34.475Z,100889.90
2018-06-11T10:40:02.684Z,100892.72
2018-06-11T10:42:30.933Z,100904.20
2018-06-11T10:44:59.179Z,100903.10
2018-06-11T10:47:27.514Z,100898.80
2018-06-11T10:49:55.873Z,100894.44
2018-06-11T10:52:24.131Z,100892.98
2018-06-11T10:54:52.399Z,100890.73
2018-06-11T10:57:20.632Z,100891.47
2018-06-11T10:59:48.867Z,100895.19
2018-06-11T11:02:17.076Z,100897.04
2018-06-11T11:04:45.353Z,100895.10
2018-06-11T11:07:13.591Z,100889.32
2018-06-11T11:09:41.850Z,100886.05
2018-06-11T11:12:10.087Z,100880.84
2018-06-11T11:14:38.281Z,100879.47
2018-06-11T11:17:06.554Z,100877.27
2018-06-11T11:19:34.786Z,100877.83
2018-06-11T11:22:03.000Z,100868.83
2018-06-11T11:24:31.274Z,100880.80
2018-06-11T11:26:59.529Z,100875.55
2018-06-11T11:29:27.822Z,100871.63
2018-06-11T11:31:56.077Z,100869.19
2018-06-11T11:34:24.308Z,100874.18
2018-06-11T11:36:52.656Z,100864.78
2018-06-11T11:39:20.913Z,100855.75
2018-06-11T11:41:49.264Z,100857.59
2018-06-11T11:44:17.500Z,100861.33
2018-06-11T11:46:45.783Z,100855.89
2018-06-11T11:49:14.009Z,100853.24
2018-06-11T11:51:42.357Z,100847.33
2018-06-11T11:54:10.588Z,100838.69
2018-06-11T11:56:38.845Z,100853.44
2018-06-11T11:59:07.171Z,100831.35
2018-06-11T12:01:35.381Z,100840.47
2018-06-11T12:04:03.731Z,100834.99
2018-06-11T12:06:32.014Z,100823.03
2018-06-11T12:09:00.252Z,100823.37
2018-06-11T12:11:28.510Z,100824.07
2018-06-11T12:13:56.729Z,100821.22
2018-06-11T12:16:25.004Z,100817.04
2018-06-11T12:18:53.881Z,100820.58
2018-06-11T12:21:22.078Z,100829.10
2018-06-11T12:23:50.352Z,100825.06
2018-06-11T12:26:18.711Z,100831.28
2018-06-11T12:28:46.982Z,100818.04
2018-06-11T12:31:15.318Z,100824.81
2018-06-11T12:33:43.630Z,100818.48
2018-06-11T12:36:11.926Z,100827.30
2018-06-11T12:38:44.381Z,100825.98
2018-06-11T12:41:13.395Z,100828.73
2018-06-11T12:43:41.728Z,100830.33
2018-06-11T12:46:09.983Z,100819.45
2018-06-11T12:48:38.272Z,100825.77
2018-06-11T12:51:06.520Z,100822.06
2018-06-11T12:53:34.748Z,100818.42
2018-06-11T12:56:03.137Z,100809.08
2018-06-11T12:58:31.497Z,100814.73
2018-06-11T13:00:59.786Z,100803.03
2018-06-11T13:03:28.027Z,100787.19
2018-06-11T13:05:56.306Z,100792.80
2018-06-11T13:08:24.576Z,100801.28
2018-06-11T13:10:52.969Z,100792.13
2018-06-11T13:13:21.290Z,100790.64
2018-06-11T13:15:49.574Z,100781.84
2018-06-11T13:18:17.843Z,100774.69
2018-06-11T13:20:46.118Z,100783.02
2018-06-11T13:23:14.425Z,100760.19
2018-06-11T13:25:42.699Z,100767.79
2018-06-11T13:28:10.916Z,100778.19
2018-06-11T13:30:39.208Z,100764.76
2018-06-11T13:33:07.456Z,100765.73
2018-06-11T13:35:35.752Z,100759.30
2018-06-11T13:38:03.978Z,100753.55
2018-06-11T13:40:32.227Z,100760.75
2018-06-11T13:43:00.487Z,100753.58
2018-06-11T13:45:28.756Z,100754.70
2018-06-11T13:47:57.093Z,100748.30
2018-06-11T13:50:25.326Z,100755.44
2018-06-11T13:52:53.575Z,100752.10
2018-06-11T13:55:21.798Z,100743.25
2018-06-11T13:57:50.040Z,100742.83
2018-06-11T14:00:18.352Z,100771.95
2018-06-11T14:02:46.621Z,100762.57
2018-06-11T14:05:14.857Z,100759.95
2018-06-11T14:07:43.080Z,100759.45
2018-06-11T14:10:11.305Z,100756.49
2018-06-11T14:12:39.526Z,100757.98
2018-06-11T14:15:07.799Z,100751.39
2018-06-11T14:17:36.025Z,100741.49
2018-06-11T14:20:04.252Z,100729.55
2018-06-11T14:22:32.512Z,100739.06
2018-06-11T14:25:00.785Z,100731.30
2018-06-11T14:27:29.027Z,100725.83
2018-06-11T14:29:57.269Z,100734.31
2018-06-11T14:32:25.479Z,100730.15
2018-06-11T14:34:53.740Z,100736.95
2018-06-11T14:37:21.987Z,100725.45
2018-06-11T14:39:50.196Z,100715.93
2018-06-11T14:42:18.457Z,100723.91
2018-06-11T14:44:46.627Z,100723.09
2018-06-11T14:47:14.896Z,100714.72
2018-06-11T14:49:43.166Z,100717.97
2018-06-11T14:52:11.426Z,100710.05
2018-06-11T14:54:39.729Z,100711.19
2018-06-11T14:57:08.063Z,100709.73
2018-06-11T14:59:36.253Z,100709.97
2018-06-11T15:02:04.689Z,100711.90
2018-06-11T15:04:32.975Z,100731.16
2018-06-11T15:07:01.273Z,100720.93
2018-06-11T15:09:29.613Z,100726.34
2018-06-11T15:11:57.812Z,100712.78
2018-06-11T15:14:26.066Z,100718.56
2018-06-11T15:16:54.292Z,100710.84
2018-06-11T15:19:22.578Z,100710.63
2018-06-11T15:21:50.801Z,100701.60
2018-06-11T15:24:19.087Z,100701.17
2018-06-11T15:26:47.315Z,100698.75
2018-06-11T15:29:15.631Z,100699.41
2018-06-11T15:31:43.841Z,100702.23
2018-06-11T15:34:12.108Z,100698.03
2018-06-11T15:36:40.479Z,100695.05
2018-06-11T15:39:08.879Z,100688.61
2018-06-11T15:41:37.089Z,100689.16
2018-06-11T15:44:05.382Z,100693.38
2018-06-11T15:46:33.693Z,100709.48
2018-06-11T15:49:02.508Z,100713.27
2018-06-11T15:51:30.738Z,100708.05
2018-06-11T15:53:58.952Z,100707.55
2018-06-11T15:56:29.752Z,100709.08
2018-06-11T15:59:05.556Z,100710.47
2018-06-11T16:01:35.709Z,100691.81
2018-06-11T16:04:07.299Z,100687.06
2018-06-11T16:06:38.348Z,100690.80
2018-06-11T16:09:07.699Z,100679.62
2018-06-11T16:11:35.951Z,100681.91
2018-06-11T16:14:04.172Z,100678.37
2018-06-11T16:16:32.390Z,100675.36
2018-06-11T16:19:00.625Z,100678.81
2018-06-11T16:21:28.922Z,100680.38
2018-06-11T16:23:57.142Z,100677.69
2018-06-11T16:26:25.422Z,100669.84
2018-06-11T16:28:53.962Z,100678.48
2018-06-11T16:31:22.226Z,100679.02
2018-06-11T16:33:50.436Z,100670.78
2018-06-11T16:36:18.719Z,100677.94
2018-06-11T16:38:46.949Z,100675.10
2018-06-11T16:41:15.260Z,100666.55
2018-06-11T16:43:43.541Z,100665.09
2018-06-11T16:46:11.862Z,100662.55
2018-06-11T16:48:40.186Z,100664.45
2018-06-11T16:51:08.398Z,100663.95
2018-06-11T16:53:36.802Z,100657.06
2018-06-11T16:56:05.220Z,100665.02
2018-06-11T16:58:33.455Z,100662.84
2018-06-11T17:01:01.720Z,100670.95
2018-06-11T17:03:29.988Z,100665.46
2018-06-11T17:05:58.267Z,100656.25
2018-06-11T17:08:26.554Z,100657.30
2018-06-11T17:10:54.874Z,100650.85
2018-06-11T17:13:23.264Z,100651.28
2018-06-11T17:15:51.599Z,100657.04
2018-06-11T17:18:20.027Z,100650.61
2018-06-11T17:20:48.282Z,100648.72
2018-06-11T17:23:16.680Z,100656.53
2018-06-11T17:25:45.013Z,100650.07
2018-06-11T17:28:13.302Z,100656.91
2018-06-11T17:30:41.606Z,100659.25
2018-06-11T17:33:09.931Z,100667.33
2018-06-11T17:35:38.159Z,100663.20
2018-06-11T17:38:06.445Z,100667.66
2018-06-11T17:40:34.770Z,100667.45
2018-06-11T17:43:03.017Z,100669.59
2018-06-11T17:45:31.242Z,100672.15
2018-06-11T17:47:59.479Z,100678.86
2018-06-11T17:50:27.676Z,100679.69
2018-06-11T17:52:56.289Z,100680.30
2018-06-11T17:55:24.481Z,100677.73
2018-06-11T17:57:52.740Z,100681.73
2018-06-11T18:00:20.945Z,100678.48
2018-06-11T18:02:49.194Z,100680.91
2018-06-11T18:05:17.560Z,100682.51
2018-06-11T18:07:45.794Z,100676.76
2018-06-11T18:10:14.023Z,100673.86
2018-06-11T18:12:42.258Z,100673.70
2018-06-11T18:15:10.499Z,100677.36
2018-06-11T18:17:38.728Z,100670.89
2018-06-11T18:20:07.023Z,100673.84
2018-06-11T18:22:35.246Z,100675.03
2018-06-11T18:25:03.531Z,100671.03
2018-06-11T18:27:31.778Z,100669.69
2018-06-11T18:30:00.319Z,100666.06
2018-06-11T18:32:28.551Z,100665.09
2018-06-11T18:34:56.798Z,100660.64
2018-06-11T18:37:25.147Z,100665.34
2018-06-11T18:39:53.436Z,100660.32
2018-06-11T18:42:21.674Z,100662.38
2018-06-11T18:44:50.029Z,100659.16
2018-06-11T18:47:18.264Z,100662.47
2018-06-11T18:49:46.567Z,100653.13
2018-06-11T18:52:14.818Z,100651.03
2018-06-11T18:54:43.084Z,100654.03
2018-06-11T18:57:11.313Z,100649.39
2018-06-11T18:59:39.636Z,100652.23
2018-06-11T19:02:07.907Z,100648.94
2018-06-11T19:04:36.136Z,100642.62
2018-06-11T19:07:04.456Z,100637.39
2018-06-11T19:09:32.698Z,100645.38
2018-06-11T19:12:01.030Z,100640.09
2018-06-11T19:14:29.263Z,100637.77
2018-06-11T19:16:57.688Z,100631.97
2018-06-11T19:19:25.960Z,100637.77
2018-06-11T19:21:54.203Z,100637.59
2018-06-11T19:24:22.485Z,100633.83
2018-06-11T19:26:50.818Z,100628.32
2018-06-11T19:29:19.184Z,100629.87
2018-06-11T19:31:47.525Z,100640.08
2018-06-11T19:34:15.795Z,100636.45
2018-06-11T19:36:44.071Z,100637.76
2018-06-11T19:39:12.386Z,100646.97
2018-06-11T19:41:40.638Z,100658.97
2018-06-11T19:44:08.960Z,100664.67
2018-06-11T19:46:37.204Z,100677.73
2018-06-11T19:49:05.441Z,100687.03
2018-06-11T19:51:33.737Z,100698.09
2018-06-11T19:54:02.006Z,100709.16
2018-06-11T19:56:30.346Z,100716.25
2018-06-11T19:58:58.567Z,100724.20
2018-06-11T20:01:26.841Z,100728.91
2018-06-11T20:03:55.134Z,100733.30
2018-06-11T20:06:23.567Z,100737.50
2018-06-11T20:08:51.840Z,100732.28
2018-06-11T20:11:20.024Z,100720.88
2018-06-11T20:13:48.259Z,100718.37
2018-06-11T20:16:16.485Z,100727.78
2018-06-11T20:18:44.778Z,100730.83
2018-06-11T20:21:13.037Z,100739.69
2018-06-11T20:23:41.277Z,100736.39
2018-06-11T20:26:09.570Z,100742.54
2018-06-11T20:28:37.835Z,100744.14
2018-06-11T20:31:06.136Z,100758.53
2018-06-11T20:33:34.392Z,100758.96
2018-06-11T20:36:02.676Z,100754.66
2018-06-11T20:38:30.997Z,100751.52
2018-06-11T20:40:59.305Z,100751.09
2018-06-11T20:43:27.581Z,100754.63
2018-06-11T20:45:55.857Z,100756.91
2018-06-11T20:48:24.129Z,100759.34
2018-06-11T20:50:52.489Z,100756.83
2018-06-11T20:53:20.720Z,100763.97
2018-06-11T20:55:48.992Z,100757.11
2018-06-11T20:58:17.735Z,100751.63
2018-06-11T21:00:46.027Z,100745.42
2018-06-11T21:03:14.265Z,100747.73
2018-06-11T21:05:42.688Z,100737.73
2018-06-11T21:08:10.965Z,100735.55
2018-06-11T21:10:39.325Z,100730.53
2018-06-11T21:13:08.060Z,100729.46
2018-06-11T21:15:36.278Z,100731.25
2018-06-11T21:18:04.705Z,100724.05
2018-06-11T21:20:32.909Z,100713.83
2018-06-11T21:23:01.199Z,100716.45
2018-06-11T21:25:29.436Z,100712.59
2018-06-11T21:27:57.719Z,100706.83
2018-06-11T21:30:26.186Z,100707.17
2018-06-11T21:32:54.432Z,100702.42
2018-06-11T21:35:22.680Z,100699.70
2018-06-11T21:37:50.936Z,100698.05
2018-06-11T21:40:19.198Z,100702.18
2018-06-11T21:42:47.533Z,100692.56
2018-06-11T21:45:15.804Z,100691.09
2018-06-11T21:47:44.022Z,100692.52
2018-06-11T21:50:12.456Z,100691.22
2018-06-11T21:52:40.681Z,100691.05
2018-06-11T21:55:08.874Z,100687.87
2018-06-11T21:57:37.092Z,100697.42
2018-06-11T22:00:06.842Z,100697.45
2018-06-11T22:02:35.083Z,100703.28
2018-06-11T22:05:03.386Z,100704.50
2018-06-11T22:07:31.627Z,100704.52
2018-06-11T22:09:59.849Z,100706.84
2018-06-11T22:12:28.065Z,100710.53
2018-06-11T22:14:56.345Z,100710.67
2018-06-11T22:17:24.565Z,100721.00
2018-06-11T22:19:52.836Z,100707.33
2018-06-11T22:22:21.078Z,100705.46
2018-06-11T22:24:51.045Z,100714.66
2018-06-11T22:27:20.499Z,100712.05
2018-06-11T22:29:49.744Z,100719.83
2018-06-11T22:32:20.051Z,100721.52
2018-06-11T22:34:49.334Z,100721.47
2018-06-11T22:37:18.512Z,100725.63
2018-06-11T22:39:47.961Z,100725.03
2018-06-11T22:42:17.352Z,100714.09
2018-06-11T22:44:46.544Z,100721.41
2018-06-11T22:47:15.512Z,100712.45
2018-06-11T22:49:44.385Z,100704.55
2018-06-11T22:52:13.000Z,100702.97
2018-06-11T22:54:43.033Z,100703.05
2018-06-11T22:57:11.779Z,100701.89
2018-06-11T22:59:39.983Z,100694.43
2018-06-11T23:02:08.167Z,100703.02
2018-06-11T23:04:36.398Z,100701.41
2018-06-11T23:07:04.611Z,100696.69
2018-06-11T23:09:32.827Z,100694.09
2018-06-11T23:12:01.039Z,100695.97
2018-06-11T23:14:29.266Z,100691.41
2018-06-11T23:16:57.500Z,100694.53
2018-06-11T23:19:25.828Z,100695.23
2018-06-11T23:21:54.102Z,100691.27
2018-06-11T23:24:22.329Z,100679.66
2018-06-11T23:26:50.548Z,100677.97
2018-06-11T23:29:19.579Z,100684.32
2018-06-11T23:31:47.843Z,100678.86
2018-06-11T23:34:16.088Z,100677.77
2018-06-11T23:36:44.396Z,100672.73
2018-06-11T23:39:12.617Z,100670.33
2018-06-11T23:41:40.881Z,100671.98
2018-06-11T23:44:09.121Z,100670.48
2018-06-11T23:46:37.330Z,100661.72
2018-06-11T23:49:05.614Z,100674.98
2018-06-11T23:51:33.989Z,100669.24
2018-06-11T23:54:02.227Z,100664.84
2018-06-11T23:56:30.474Z,100659.36
2018-06-11T23:58:58.719Z,100655.59
